Oltza, Spain
Current Conditions -  °F | °C
As of 6:30 AM on Thursday 18 Dec 2014 (Local Time) from LEPP Reporting Station
Broken Clouds Broken Clouds  
Wind Chill: 48°   Ceiling: 1800
Heat Index: 48°   Visibility: 6mi
Dew Point: 46°   Wind: 3mph
Humidity: 93%   Direction: 290°WNW
Pressure: 30.36"   Gusts: NA
Location:  42.85°N, 1.77°W
Report Text: LEPP 180530Z 29003KT 9999 BKN018 09/08 Q1028
Loading
Personal Weather Stations






























Interactive Weather Map New forecast layout! Learn more

10-Day Weather Forecast

Advertisements
Track Severe Weather on mobile